sensor_id;sensor_type;location;lat;lon;timestamp;P1;durP1;ratioP1;P2;durP2;ratioP2
28774;SDS011;15926;51.348;6.596;2023-11-21T05:00:37;46.53;;;17.05;;
28774;SDS011;15926;51.348;6.596;2023-11-21T05:03:03;47.03;;;18.88;;
28774;SDS011;15926;51.348;6.596;2023-11-21T05:05:30;57.30;;;19.63;;
28774;SDS011;15926;51.348;6.596;2023-11-21T05:07:56;50.55;;;19.15;;
28774;SDS011;15926;51.348;6.596;2023-11-21T05:10:22;45.60;;;18.30;;
28774;SDS011;15926;51.348;6.596;2023-11-21T05:12:48;52.55;;;20.15;;
28774;SDS011;15926;51.348;6.596;2023-11-21T05:15:15;44.95;;;19.25;;
28774;SDS011;15926;51.348;6.596;2023-11-21T05:17:42;48.47;;;19.23;;
28774;SDS011;15926;51.348;6.596;2023-11-21T05:20:15;55.33;;;19.85;;
28774;SDS011;15926;51.348;6.596;2023-11-21T05:22:48;50.88;;;19.88;;
28774;SDS011;15926;51.348;6.596;2023-11-21T05:25:15;50.63;;;19.02;;
28774;SDS011;15926;51.348;6.596;2023-11-21T05:27:43;56.58;;;19.50;;
28774;SDS011;15926;51.348;6.596;2023-11-21T05:30:09;54.03;;;20.67;;
28774;SDS011;15926;51.348;6.596;2023-11-21T05:32:37;56.72;;;20.08;;
28774;SDS011;15926;51.348;6.596;2023-11-21T05:35:03;49.78;;;19.95;;
28774;SDS011;15926;51.348;6.596;2023-11-21T05:37:34;59.20;;;22.98;;
28774;SDS011;15926;51.348;6.596;2023-11-21T05:40:00;64.25;;;23.38;;
28774;SDS011;15926;51.348;6.596;2023-11-21T05:42:31;67.25;;;22.48;;
28774;SDS011;15926;51.348;6.596;2023-11-21T05:44:57;68.55;;;22.05;;
28774;SDS011;15926;51.348;6.596;2023-11-21T05:47:24;71.30;;;23.80;;
28774;SDS011;15926;51.348;6.596;2023-11-21T05:49:51;63.63;;;22.08;;
28774;SDS011;15926;51.348;6.596;2023-11-21T05:52:17;66.60;;;22.48;;
28774;SDS011;15926;51.348;6.596;2023-11-21T05:54:43;71.18;;;22.55;;
28774;SDS011;15926;51.348;6.596;2023-11-21T05:57:09;61.50;;;23.17;;
28774;SDS011;15926;51.348;6.596;2023-11-21T05:59:36;58.88;;;20.67;;
28774;SDS011;15926;51.348;6.596;2023-11-21T06:02:02;61.75;;;21.02;;
28774;SDS011;15926;51.348;6.596;2023-11-21T06:04:28;71.80;;;23.67;;
28774;SDS011;15926;51.348;6.596;2023-11-21T06:06:54;66.82;;;21.85;;
28774;SDS011;15926;51.348;6.596;2023-11-21T06:09:20;71.00;;;23.73;;
28774;SDS011;15926;51.348;6.596;2023-11-21T06:11:46;63.90;;;22.05;;
28774;SDS011;15926;51.348;6.596;2023-11-21T06:14:12;67.00;;;22.67;;
28774;SDS011;15926;51.348;6.596;2023-11-21T06:16:38;75.82;;;23.88;;
28774;SDS011;15926;51.348;6.596;2023-11-21T06:19:05;64.70;;;22.02;;
28774;SDS011;15926;51.348;6.596;2023-11-21T06:21:31;68.07;;;21.13;;
28774;SDS011;15926;51.348;6.596;2023-11-21T06:23:58;67.05;;;22.48;;
28774;SDS011;15926;51.348;6.596;2023-11-21T06:26:24;70.95;;;22.73;;
28774;SDS011;15926;51.348;6.596;2023-11-21T06:28:50;65.82;;;21.98;;
28774;SDS011;15926;51.348;6.596;2023-11-21T06:31:17;70.93;;;21.70;;
28774;SDS011;15926;51.348;6.596;2023-11-21T06:33:43;75.53;;;24.00;;
28774;SDS011;15926;51.348;6.596;2023-11-21T06:36:09;77.85;;;23.88;;
28774;SDS011;15926;51.348;6.596;2023-11-21T06:38:38;71.13;;;21.98;;
28774;SDS011;15926;51.348;6.596;2023-11-21T06:41:04;75.97;;;23.80;;
28774;SDS011;15926;51.348;6.596;2023-11-21T06:43:30;76.57;;;23.80;;
28774;SDS011;15926;51.348;6.596;2023-11-21T06:45:56;70.03;;;24.38;;
28774;SDS011;15926;51.348;6.596;2023-11-21T06:48:22;72.13;;;24.30;;
28774;SDS011;15926;51.348;6.596;2023-11-21T06:50:48;75.00;;;25.23;;
28774;SDS011;15926;51.348;6.596;2023-11-21T06:53:17;71.27;;;24.67;;
28774;SDS011;15926;51.348;6.596;2023-11-21T06:55:43;83.63;;;26.50;;
28774;SDS011;15926;51.348;6.596;2023-11-21T06:58:09;70.45;;;25.55;;
28774;SDS011;15926;51.348;6.596;2023-11-21T07:00:35;84.82;;;27.23;;
28774;SDS011;15926;51.348;6.596;2023-11-21T07:03:01;82.13;;;28.08;;
28774;SDS011;15926;51.348;6.596;2023-11-21T07:05:27;85.93;;;27.77;;
28774;SDS011;15926;51.348;6.596;2023-11-21T07:07:53;78.30;;;25.60;;
28774;SDS011;15926;51.348;6.596;2023-11-21T07:10:19;84.78;;;25.98;;
28774;SDS011;15926;51.348;6.596;2023-11-21T07:12:45;71.88;;;24.90;;
28774;SDS011;15926;51.348;6.596;2023-11-21T07:15:11;78.78;;;26.40;;
28774;SDS011;15926;51.348;6.596;2023-11-21T07:17:37;75.07;;;26.45;;
28774;SDS011;15926;51.348;6.596;2023-11-21T07:20:03;83.38;;;26.50;;
28774;SDS011;15926;51.348;6.596;2023-11-21T07:22:29;76.53;;;26.92;;
28774;SDS011;15926;51.348;6.596;2023-11-21T07:24:55;89.65;;;25.30;;
28774;SDS011;15926;51.348;6.596;2023-11-21T07:27:24;78.18;;;25.02;;
28774;SDS011;15926;51.348;6.596;2023-11-21T07:29:50;71.72;;;24.65;;
28774;SDS011;15926;51.348;6.596;2023-11-21T07:32:16;77.18;;;25.95;;
28774;SDS011;15926;51.348;6.596;2023-11-21T07:34:42;74.90;;;27.80;;
28774;SDS011;15926;51.348;6.596;2023-11-21T07:37:08;69.55;;;27.25;;
28774;SDS011;15926;51.348;6.596;2023-11-21T07:39:35;74.22;;;25.42;;
28774;SDS011;15926;51.348;6.596;2023-11-21T07:42:01;63.88;;;25.25;;
28774;SDS011;15926;51.348;6.596;2023-11-21T07:44:28;76.03;;;25.08;;
28774;SDS011;15926;51.348;6.596;2023-11-21T07:46:54;84.18;;;25.17;;
28774;SDS011;15926;51.348;6.596;2023-11-21T07:51:49;82.95;;;27.23;;
28774;SDS011;15926;51.348;6.596;2023-11-21T07:54:15;87.15;;;28.70;;
28774;SDS011;15926;51.348;6.596;2023-11-21T07:56:42;88.20;;;30.25;;
28774;SDS011;15926;51.348;6.596;2023-11-21T07:59:08;80.15;;;27.52;;
28774;SDS011;15926;51.348;6.596;2023-11-21T08:01:34;82.30;;;28.63;;
28774;SDS011;15926;51.348;6.596;2023-11-21T08:04:00;68.35;;;25.65;;
28774;SDS011;15926;51.348;6.596;2023-11-21T08:06:29;78.90;;;27.25;;
28774;SDS011;15926;51.348;6.596;2023-11-21T08:08:56;69.85;;;26.23;;
28774;SDS011;15926;51.348;6.596;2023-11-21T08:11:22;72.43;;;26.75;;
28774;SDS011;15926;51.348;6.596;2023-11-21T08:13:48;72.75;;;28.08;;
28774;SDS011;15926;51.348;6.596;2023-11-21T08:16:14;76.38;;;29.02;;
28774;SDS011;15926;51.348;6.596;2023-11-21T08:18:41;81.18;;;28.70;;
28774;SDS011;15926;51.348;6.596;2023-11-21T08:21:07;84.00;;;29.45;;
28774;SDS011;15926;51.348;6.596;2023-11-21T08:23:34;78.78;;;27.70;;
28774;SDS011;15926;51.348;6.596;2023-11-21T08:26:00;81.03;;;29.67;;
28774;SDS011;15926;51.348;6.596;2023-11-21T08:28:28;82.00;;;31.70;;
28774;SDS011;15926;51.348;6.596;2023-11-21T08:30:54;82.53;;;30.42;;
28774;SDS011;15926;51.348;6.596;2023-11-21T08:33:20;78.43;;;30.60;;
28774;SDS011;15926;51.348;6.596;2023-11-21T08:35:46;79.78;;;29.73;;
28774;SDS011;15926;51.348;6.596;2023-11-21T08:38:12;78.80;;;30.52;;
28774;SDS011;15926;51.348;6.596;2023-11-21T08:40:39;80.45;;;28.23;;
28774;SDS011;15926;51.348;6.596;2023-11-21T08:43:05;78.32;;;27.38;;
28774;SDS011;15926;51.348;6.596;2023-11-21T08:45:32;64.10;;;25.08;;
28774;SDS011;15926;51.348;6.596;2023-11-21T08:47:59;75.43;;;26.40;;
28774;SDS011;15926;51.348;6.596;2023-11-21T08:50:28;67.07;;;26.58;;
28774;SDS011;15926;51.348;6.596;2023-11-21T08:52:54;65.40;;;26.25;;
28774;SDS011;15926;51.348;6.596;2023-11-21T08:55:20;69.00;;;26.05;;
28774;SDS011;15926;51.348;6.596;2023-11-21T08:57:47;68.03;;;25.83;;
28774;SDS011;15926;51.348;6.596;2023-11-21T09:00:13;63.53;;;25.65;;
28774;SDS011;15926;51.348;6.596;2023-11-21T09:02:42;78.20;;;27.35;;
28774;SDS011;15926;51.348;6.596;2023-11-21T09:05:08;63.75;;;24.77;;
28774;SDS011;15926;51.348;6.596;2023-11-21T09:07:38;58.67;;;23.95;;
28774;SDS011;15926;51.348;6.596;2023-11-21T09:10:07;58.95;;;24.80;;
28774;SDS011;15926;51.348;6.596;2023-11-21T09:12:34;57.03;;;24.38;;
28774;SDS011;15926;51.348;6.596;2023-11-21T09:15:09;51.65;;;23.75;;
28774;SDS011;15926;51.348;6.596;2023-11-21T09:20:41;63.60;;;23.65;;
28774;SDS011;15926;51.348;6.596;2023-11-21T09:26:06;58.35;;;22.83;;
28774;SDS011;15926;51.348;6.596;2023-11-21T09:28:33;57.83;;;24.23;;
28774;SDS011;15926;51.348;6.596;2023-11-21T09:33:29;54.83;;;22.00;;
28774;SDS011;15926;51.348;6.596;2023-11-21T09:35:56;54.67;;;21.80;;
28774;SDS011;15926;51.348;6.596;2023-11-21T09:38:26;53.22;;;20.95;;
28774;SDS011;15926;51.348;6.596;2023-11-21T09:40:54;47.85;;;20.73;;
28774;SDS011;15926;51.348;6.596;2023-11-21T09:43:20;46.92;;;21.38;;
28774;SDS011;15926;51.348;6.596;2023-11-21T09:45:48;46.92;;;21.35;;
28774;SDS011;15926;51.348;6.596;2023-11-21T09:48:15;43.80;;;20.67;;
28774;SDS011;15926;51.348;6.596;2023-11-21T09:50:42;45.47;;;19.98;;
28774;SDS011;15926;51.348;6.596;2023-11-21T09:55:40;51.78;;;21.30;;
28774;SDS011;15926;51.348;6.596;2023-11-21T09:58:09;47.85;;;22.27;;
28774;SDS011;15926;51.348;6.596;2023-11-21T10:00:37;55.88;;;22.60;;
28774;SDS011;15926;51.348;6.596;2023-11-21T10:03:05;54.85;;;23.13;;
28774;SDS011;15926;51.348;6.596;2023-11-21T10:05:32;50.58;;;22.20;;
28774;SDS011;15926;51.348;6.596;2023-11-21T10:07:59;53.83;;;20.98;;
28774;SDS011;15926;51.348;6.596;2023-11-21T10:10:26;49.55;;;20.77;;
28774;SDS011;15926;51.348;6.596;2023-11-21T10:12:57;48.35;;;20.42;;
28774;SDS011;15926;51.348;6.596;2023-11-21T10:15:27;51.35;;;19.83;;
28774;SDS011;15926;51.348;6.596;2023-11-21T10:17:54;51.78;;;21.48;;
28774;SDS011;15926;51.348;6.596;2023-11-21T10:20:21;43.20;;;19.02;;
28774;SDS011;15926;51.348;6.596;2023-11-21T10:22:48;42.60;;;19.25;;
28774;SDS011;15926;51.348;6.596;2023-11-21T10:25:14;38.67;;;17.83;;
28774;SDS011;15926;51.348;6.596;2023-11-21T10:27:41;40.83;;;19.30;;
28774;SDS011;15926;51.348;6.596;2023-11-21T10:30:07;40.88;;;18.30;;
28774;SDS011;15926;51.348;6.596;2023-11-21T10:32:36;42.10;;;18.58;;
28774;SDS011;15926;51.348;6.596;2023-11-21T10:35:03;35.08;;;16.67;;
28774;SDS011;15926;51.348;6.596;2023-11-21T10:37:35;39.67;;;18.40;;
28774;SDS011;15926;51.348;6.596;2023-11-21T10:40:05;47.38;;;18.98;;
28774;SDS011;15926;51.348;6.596;2023-11-21T10:42:35;36.60;;;17.90;;
28774;SDS011;15926;51.348;6.596;2023-11-21T10:45:03;38.58;;;17.42;;
28774;SDS011;15926;51.348;6.596;2023-11-21T10:47:30;35.38;;;17.45;;
28774;SDS011;15926;51.348;6.596;2023-11-21T10:50:00;44.05;;;17.88;;
28774;SDS011;15926;51.348;6.596;2023-11-21T10:52:29;42.83;;;17.67;;
28774;SDS011;15926;51.348;6.596;2023-11-21T10:54:55;34.30;;;18.02;;
28774;SDS011;15926;51.348;6.596;2023-11-21T10:57:24;38.58;;;18.23;;
28774;SDS011;15926;51.348;6.596;2023-11-21T10:59:50;34.38;;;18.10;;
28774;SDS011;15926;51.348;6.596;2023-11-21T11:02:24;32.05;;;15.80;;
28774;SDS011;15926;51.348;6.596;2023-11-21T11:04:53;38.20;;;15.85;;
28774;SDS011;15926;51.348;6.596;2023-11-21T11:07:21;36.10;;;15.88;;
28774;SDS011;15926;51.348;6.596;2023-11-21T11:09:51;35.33;;;16.27;;
28774;SDS011;15926;51.348;6.596;2023-11-21T11:12:17;34.60;;;15.95;;
28774;SDS011;15926;51.348;6.596;2023-11-21T11:14:44;43.38;;;15.82;;
28774;SDS011;15926;51.348;6.596;2023-11-21T11:17:10;32.47;;;16.85;;
28774;SDS011;15926;51.348;6.596;2023-11-21T11:19:36;34.90;;;16.50;;
28774;SDS011;15926;51.348;6.596;2023-11-21T11:30:10;34.70;;;16.13;;
28774;SDS011;15926;51.348;6.596;2023-11-21T11:37:50;41.25;;;16.10;;
28774;SDS011;15926;51.348;6.596;2023-11-21T11:40:16;45.38;;;17.20;;
28774;SDS011;15926;51.348;6.596;2023-11-21T11:43:01;35.90;;;17.97;;
28774;SDS011;15926;51.348;6.596;2023-11-21T11:45:33;34.85;;;16.33;;
28774;SDS011;15926;51.348;6.596;2023-11-21T11:48:07;38.00;;;16.13;;
28774;SDS011;15926;51.348;6.596;2023-11-21T11:50:33;32.85;;;15.77;;
28774;SDS011;15926;51.348;6.596;2023-11-21T11:53:12;34.45;;;14.77;;
28774;SDS011;15926;51.348;6.596;2023-11-21T11:55:39;30.92;;;13.77;;
28774;SDS011;15926;51.348;6.596;2023-11-21T11:58:07;27.50;;;13.77;;
28774;SDS011;15926;51.348;6.596;2023-11-21T12:00:34;30.77;;;14.88;;
28774;SDS011;15926;51.348;6.596;2023-11-21T12:03:05;30.13;;;13.45;;
28774;SDS011;15926;51.348;6.596;2023-11-21T12:05:32;35.47;;;15.63;;
28774;SDS011;15926;51.348;6.596;2023-11-21T12:08:03;33.05;;;14.43;;
28774;SDS011;15926;51.348;6.596;2023-11-21T12:13:02;29.52;;;13.63;;
28774;SDS011;15926;51.348;6.596;2023-11-21T12:15:32;36.17;;;15.02;;
28774;SDS011;15926;51.348;6.596;2023-11-21T12:17:58;32.78;;;15.02;;
28774;SDS011;15926;51.348;6.596;2023-11-21T12:20:25;26.73;;;14.18;;
28774;SDS011;15926;51.348;6.596;2023-11-21T12:22:53;34.35;;;15.65;;
28774;SDS011;15926;51.348;6.596;2023-11-21T12:25:21;29.98;;;14.55;;
28774;SDS011;15926;51.348;6.596;2023-11-21T12:27:48;30.98;;;15.35;;
28774;SDS011;15926;51.348;6.596;2023-11-21T12:30:21;31.95;;;16.48;;
28774;SDS011;15926;51.348;6.596;2023-11-21T12:32:51;34.22;;;16.52;;
28774;SDS011;15926;51.348;6.596;2023-11-21T12:35:17;36.75;;;17.38;;
28774;SDS011;15926;51.348;6.596;2023-11-21T12:37:44;34.08;;;15.88;;
28774;SDS011;15926;51.348;6.596;2023-11-21T12:40:11;29.52;;;16.67;;
28774;SDS011;15926;51.348;6.596;2023-11-21T12:42:50;37.60;;;17.45;;
28774;SDS011;15926;51.348;6.596;2023-11-21T12:47:43;32.88;;;17.13;;
28774;SDS011;15926;51.348;6.596;2023-11-21T12:50:10;31.60;;;16.27;;
28774;SDS011;15926;51.348;6.596;2023-11-21T12:52:42;34.90;;;16.02;;
28774;SDS011;15926;51.348;6.596;2023-11-21T12:55:13;32.95;;;17.02;;
28774;SDS011;15926;51.348;6.596;2023-11-21T12:57:43;31.85;;;15.38;;
28774;SDS011;15926;51.348;6.596;2023-11-21T13:00:10;31.25;;;15.60;;
28774;SDS011;15926;51.348;6.596;2023-11-21T13:02:41;37.15;;;15.95;;
28774;SDS011;15926;51.348;6.596;2023-11-21T13:05:10;32.53;;;17.52;;
28774;SDS011;15926;51.348;6.596;2023-11-21T13:07:46;38.13;;;17.92;;
28774;SDS011;15926;51.348;6.596;2023-11-21T13:10:13;32.03;;;16.92;;
28774;SDS011;15926;51.348;6.596;2023-11-21T13:12:43;39.30;;;17.73;;
28774;SDS011;15926;51.348;6.596;2023-11-21T13:15:13;36.30;;;16.25;;
28774;SDS011;15926;51.348;6.596;2023-11-21T13:17:45;27.17;;;15.32;;
28774;SDS011;15926;51.348;6.596;2023-11-21T13:20:11;37.22;;;18.05;;
28774;SDS011;15926;51.348;6.596;2023-11-21T13:22:49;31.33;;;17.10;;
28774;SDS011;15926;51.348;6.596;2023-11-21T13:25:16;33.97;;;18.08;;
28774;SDS011;15926;51.348;6.596;2023-11-21T13:27:43;34.05;;;17.77;;
28774;SDS011;15926;51.348;6.596;2023-11-21T13:30:10;30.25;;;17.58;;
28774;SDS011;15926;51.348;6.596;2023-11-21T13:32:43;35.85;;;16.92;;
28774;SDS011;15926;51.348;6.596;2023-11-21T13:35:11;41.05;;;18.02;;
28774;SDS011;15926;51.348;6.596;2023-11-21T13:37:48;42.75;;;19.48;;
28774;SDS011;15926;51.348;6.596;2023-11-21T13:40:16;37.58;;;18.67;;
28774;SDS011;15926;51.348;6.596;2023-11-21T13:42:47;40.80;;;19.05;;
28774;SDS011;15926;51.348;6.596;2023-11-21T13:45:13;41.38;;;18.23;;
28774;SDS011;15926;51.348;6.596;2023-11-21T13:47:39;41.15;;;19.15;;
28774;SDS011;15926;51.348;6.596;2023-11-21T13:50:06;45.40;;;18.73;;
28774;SDS011;15926;51.348;6.596;2023-11-21T13:52:42;43.67;;;18.48;;
28774;SDS011;15926;51.348;6.596;2023-11-21T13:55:09;45.22;;;19.75;;
28774;SDS011;15926;51.348;6.596;2023-11-21T13:57:43;46.03;;;20.90;;
28774;SDS011;15926;51.348;6.596;2023-11-21T14:00:14;43.85;;;21.10;;
28774;SDS011;15926;51.348;6.596;2023-11-21T14:03:00;43.08;;;21.17;;
28774;SDS011;15926;51.348;6.596;2023-11-21T14:05:31;47.22;;;20.02;;
28774;SDS011;15926;51.348;6.596;2023-11-21T14:07:58;41.80;;;20.95;;
28774;SDS011;15926;51.348;6.596;2023-11-21T14:10:30;45.75;;;19.83;;
28774;SDS011;15926;51.348;6.596;2023-11-21T14:13:05;37.38;;;19.13;;
28774;SDS011;15926;51.348;6.596;2023-11-21T14:15:31;34.53;;;16.83;;
28774;SDS011;15926;51.348;6.596;2023-11-21T14:18:02;32.70;;;15.82;;
28774;SDS011;15926;51.348;6.596;2023-11-21T14:20:33;28.80;;;15.13;;
28774;SDS011;15926;51.348;6.596;2023-11-21T14:23:01;30.37;;;16.00;;
28774;SDS011;15926;51.348;6.596;2023-11-21T14:25:27;28.75;;;14.75;;
28774;SDS011;15926;51.348;6.596;2023-11-21T14:27:53;22.90;;;12.60;;
28774;SDS011;15926;51.348;6.596;2023-11-21T14:30:19;22.05;;;12.10;;
28774;SDS011;15926;51.348;6.596;2023-11-21T14:32:47;19.95;;;11.10;;
28774;SDS011;15926;51.348;6.596;2023-11-21T14:35:14;18.85;;;10.40;;
28774;SDS011;15926;51.348;6.596;2023-11-21T14:37:40;19.52;;;9.93;;
28774;SDS011;15926;51.348;6.596;2023-11-21T14:40:06;21.20;;;11.52;;
28774;SDS011;15926;51.348;6.596;2023-11-21T14:42:33;20.70;;;10.50;;
28774;SDS011;15926;51.348;6.596;2023-11-21T14:45:02;23.08;;;10.40;;
28774;SDS011;15926;51.348;6.596;2023-11-21T14:47:31;18.33;;;11.38;;
28774;SDS011;15926;51.348;6.596;2023-11-21T14:49:59;20.60;;;12.02;;
28774;SDS011;15926;51.348;6.596;2023-11-21T14:52:31;27.95;;;13.35;;
28774;SDS011;15926;51.348;6.596;2023-11-21T14:55:03;23.95;;;12.73;;
28774;SDS011;15926;51.348;6.596;2023-11-21T14:57:48;23.00;;;12.30;;
28774;SDS011;15926;51.348;6.596;2023-11-21T15:00:18;21.50;;;12.27;;
28774;SDS011;15926;51.348;6.596;2023-11-21T15:03:03;28.10;;;13.23;;
28774;SDS011;15926;51.348;6.596;2023-11-21T15:05:30;25.83;;;13.40;;
28774;SDS011;15926;51.348;6.596;2023-11-21T15:07:56;26.65;;;12.55;;
28774;SDS011;15926;51.348;6.596;2023-11-21T15:10:33;26.20;;;12.48;;
28774;SDS011;15926;51.348;6.596;2023-11-21T15:13:14;25.30;;;13.55;;
28774;SDS011;15926;51.348;6.596;2023-11-21T15:15:43;29.33;;;13.55;;
28774;SDS011;15926;51.348;6.596;2023-11-21T15:18:09;26.20;;;13.45;;
28774;SDS011;15926;51.348;6.596;2023-11-21T15:20:41;23.58;;;12.65;;
28774;SDS011;15926;51.348;6.596;2023-11-21T15:23:09;25.73;;;14.27;;
28774;SDS011;15926;51.348;6.596;2023-11-21T15:25:37;25.23;;;13.27;;
28774;SDS011;15926;51.348;6.596;2023-11-21T15:28:04;25.65;;;13.88;;
28774;SDS011;15926;51.348;6.596;2023-11-21T15:30:30;29.35;;;14.05;;
28774;SDS011;15926;51.348;6.596;2023-11-21T15:32:58;25.75;;;13.57;;
28774;SDS011;15926;51.348;6.596;2023-11-21T15:35:24;24.27;;;12.85;;
28774;SDS011;15926;51.348;6.596;2023-11-21T15:37:52;25.00;;;13.27;;
28774;SDS011;15926;51.348;6.596;2023-11-21T15:40:18;24.85;;;13.13;;
28774;SDS011;15926;51.348;6.596;2023-11-21T15:42:44;21.33;;;13.02;;
28774;SDS011;15926;51.348;6.596;2023-11-21T15:45:10;22.17;;;12.63;;
28774;SDS011;15926;51.348;6.596;2023-11-21T15:47:36;20.95;;;12.13;;
28774;SDS011;15926;51.348;6.596;2023-11-21T15:50:03;21.48;;;11.80;;
28774;SDS011;15926;51.348;6.596;2023-11-21T15:52:33;26.58;;;12.60;;
28774;SDS011;15926;51.348;6.596;2023-11-21T15:54:59;22.27;;;11.32;;
28774;SDS011;15926;51.348;6.596;2023-11-21T15:57:25;19.70;;;9.88;;
28774;SDS011;15926;51.348;6.596;2023-11-21T15:59:52;14.50;;;8.68;;
28774;SDS011;15926;51.348;6.596;2023-11-21T16:02:18;15.88;;;8.88;;
28774;SDS011;15926;51.348;6.596;2023-11-21T16:04:44;14.13;;;8.05;;
28774;SDS011;15926;51.348;6.596;2023-11-21T16:07:10;14.13;;;8.02;;
28774;SDS011;15926;51.348;6.596;2023-11-21T16:09:37;12.50;;;7.25;;
28774;SDS011;15926;51.348;6.596;2023-11-21T16:12:04;9.98;;;6.93;;
28774;SDS011;15926;51.348;6.596;2023-11-21T16:14:32;10.18;;;7.00;;
28774;SDS011;15926;51.348;6.596;2023-11-21T16:17:05;13.13;;;7.20;;
28774;SDS011;15926;51.348;6.596;2023-11-21T16:19:34;12.35;;;6.97;;
28774;SDS011;15926;51.348;6.596;2023-11-21T16:22:00;13.80;;;7.55;;
28774;SDS011;15926;51.348;6.596;2023-11-21T16:24:26;12.88;;;7.32;;
28774;SDS011;15926;51.348;6.596;2023-11-21T16:26:53;11.85;;;6.82;;
28774;SDS011;15926;51.348;6.596;2023-11-21T16:29:20;10.23;;;7.07;;
28774;SDS011;15926;51.348;6.596;2023-11-21T16:31:47;9.38;;;7.13;;
28774;SDS011;15926;51.348;6.596;2023-11-21T16:34:17;9.25;;;6.32;;
28774;SDS011;15926;51.348;6.596;2023-11-21T16:36:43;8.43;;;5.82;;
28774;SDS011;15926;51.348;6.596;2023-11-21T16:39:14;8.75;;;6.80;;
28774;SDS011;15926;51.348;6.596;2023-11-21T16:41:42;10.15;;;7.28;;
28774;SDS011;15926;51.348;6.596;2023-11-21T16:44:15;8.48;;;6.90;;
28774;SDS011;15926;51.348;6.596;2023-11-21T16:46:51;9.75;;;7.43;;
28774;SDS011;15926;51.348;6.596;2023-11-21T16:49:30;11.32;;;7.97;;
28774;SDS011;15926;51.348;6.596;2023-11-21T16:51:57;11.63;;;8.57;;
28774;SDS011;15926;51.348;6.596;2023-11-21T16:54:23;15.43;;;8.68;;
28774;SDS011;15926;51.348;6.596;2023-11-21T16:56:50;12.85;;;8.45;;
28774;SDS011;15926;51.348;6.596;2023-11-21T16:59:16;15.05;;;8.40;;
28774;SDS011;15926;51.348;6.596;2023-11-21T17:01:43;14.30;;;9.18;;
28774;SDS011;15926;51.348;6.596;2023-11-21T17:04:12;13.75;;;9.93;;
28774;SDS011;15926;51.348;6.596;2023-11-21T17:06:44;19.40;;;10.45;;
28774;SDS011;15926;51.348;6.596;2023-11-21T17:09:10;17.25;;;10.80;;
28774;SDS011;15926;51.348;6.596;2023-11-21T17:11:39;18.33;;;11.52;;
28774;SDS011;15926;51.348;6.596;2023-11-21T17:14:06;19.10;;;11.75;;
28774;SDS011;15926;51.348;6.596;2023-11-21T17:16:32;18.40;;;11.82;;
28774;SDS011;15926;51.348;6.596;2023-11-21T17:18:58;18.17;;;12.32;;
28774;SDS011;15926;51.348;6.596;2023-11-21T17:21:24;19.63;;;12.85;;
28774;SDS011;15926;51.348;6.596;2023-11-21T17:23:52;17.80;;;12.40;;
28774;SDS011;15926;51.348;6.596;2023-11-21T17:26:18;20.98;;;12.73;;
28774;SDS011;15926;51.348;6.596;2023-11-21T17:28:44;17.35;;;11.02;;
28774;SDS011;15926;51.348;6.596;2023-11-21T17:31:10;17.75;;;11.80;;
28774;SDS011;15926;51.348;6.596;2023-11-21T17:33:37;20.92;;;11.70;;
28774;SDS011;15926;51.348;6.596;2023-11-21T17:36:03;17.80;;;11.43;;
28774;SDS011;15926;51.348;6.596;2023-11-21T17:38:30;17.85;;;11.65;;
28774;SDS011;15926;51.348;6.596;2023-11-21T17:40:57;14.70;;;10.63;;
28774;SDS011;15926;51.348;6.596;2023-11-21T17:43:23;17.10;;;11.32;;
28774;SDS011;15926;51.348;6.596;2023-11-21T17:45:49;16.23;;;11.05;;
28774;SDS011;15926;51.348;6.596;2023-11-21T17:48:16;14.00;;;10.23;;
28774;SDS011;15926;51.348;6.596;2023-11-21T17:50:42;15.80;;;11.02;;
28774;SDS011;15926;51.348;6.596;2023-11-21T17:53:08;15.52;;;11.38;;
28774;SDS011;15926;51.348;6.596;2023-11-21T17:55:34;14.13;;;10.52;;
28774;SDS011;15926;51.348;6.596;2023-11-21T17:58:00;18.50;;;10.88;;
28774;SDS011;15926;51.348;6.596;2023-11-21T18:00:26;13.13;;;9.73;;
28774;SDS011;15926;51.348;6.596;2023-11-21T18:02:53;15.48;;;9.80;;
28774;SDS011;15926;51.348;6.596;2023-11-21T18:05:19;15.68;;;9.68;;
28774;SDS011;15926;51.348;6.596;2023-11-21T18:07:47;14.98;;;9.90;;
28774;SDS011;15926;51.348;6.596;2023-11-21T18:10:13;13.63;;;9.95;;
28774;SDS011;15926;51.348;6.596;2023-11-21T18:12:40;11.77;;;9.00;;
28774;SDS011;15926;51.348;6.596;2023-11-21T18:15:08;11.75;;;8.25;;
28774;SDS011;15926;51.348;6.596;2023-11-21T18:17:34;15.25;;;8.15;;
28774;SDS011;15926;51.348;6.596;2023-11-21T18:20:00;9.65;;;7.72;;
28774;SDS011;15926;51.348;6.596;2023-11-21T18:22:26;11.07;;;8.07;;
28774;SDS011;15926;51.348;6.596;2023-11-21T18:24:53;10.38;;;8.20;;
28774;SDS011;15926;51.348;6.596;2023-11-21T18:27:19;11.68;;;7.60;;
28774;SDS011;15926;51.348;6.596;2023-11-21T18:29:46;10.00;;;7.95;;
28774;SDS011;15926;51.348;6.596;2023-11-21T18:32:13;10.07;;;8.25;;
28774;SDS011;15926;51.348;6.596;2023-11-21T18:34:42;10.48;;;8.43;;
28774;SDS011;15926;51.348;6.596;2023-11-21T18:37:10;10.65;;;8.68;;
28774;SDS011;15926;51.348;6.596;2023-11-21T18:39:36;10.70;;;8.52;;
28774;SDS011;15926;51.348;6.596;2023-11-21T18:42:03;11.52;;;8.18;;
28774;SDS011;15926;51.348;6.596;2023-11-21T18:44:29;11.27;;;7.97;;
28774;SDS011;15926;51.348;6.596;2023-11-21T18:46:55;9.55;;;7.45;;
28774;SDS011;15926;51.348;6.596;2023-11-21T18:49:21;10.25;;;7.45;;
28774;SDS011;15926;51.348;6.596;2023-11-21T18:51:47;8.40;;;7.03;;
28774;SDS011;15926;51.348;6.596;2023-11-21T18:54:13;11.98;;;7.78;;
28774;SDS011;15926;51.348;6.596;2023-11-21T18:56:40;8.82;;;7.22;;
28774;SDS011;15926;51.348;6.596;2023-11-21T18:59:08;9.50;;;7.28;;
28774;SDS011;15926;51.348;6.596;2023-11-21T19:01:35;8.48;;;6.72;;
28774;SDS011;15926;51.348;6.596;2023-11-21T19:04:01;8.18;;;6.53;;
28774;SDS011;15926;51.348;6.596;2023-11-21T19:06:27;10.15;;;7.40;;
28774;SDS011;15926;51.348;6.596;2023-11-21T19:08:54;7.93;;;6.57;;
28774;SDS011;15926;51.348;6.596;2023-11-21T19:11:20;11.43;;;7.97;;
28774;SDS011;15926;51.348;6.596;2023-11-21T19:13:47;8.20;;;7.35;;
28774;SDS011;15926;51.348;6.596;2023-11-21T19:16:13;6.93;;;6.00;;
28774;SDS011;15926;51.348;6.596;2023-11-21T19:18:40;7.93;;;6.43;;
28774;SDS011;15926;51.348;6.596;2023-11-21T19:21:13;9.45;;;6.30;;
28774;SDS011;15926;51.348;6.596;2023-11-21T19:23:42;7.88;;;6.05;;
28774;SDS011;15926;51.348;6.596;2023-11-21T19:26:08;6.90;;;5.97;;
28774;SDS011;15926;51.348;6.596;2023-11-21T19:28:35;10.73;;;5.70;;
28774;SDS011;15926;51.348;6.596;2023-11-21T19:31:01;7.97;;;6.20;;
28774;SDS011;15926;51.348;6.596;2023-11-21T19:33:53;8.13;;;6.03;;
28774;SDS011;15926;51.348;6.596;2023-11-21T19:36:22;10.57;;;6.65;;
28774;SDS011;15926;51.348;6.596;2023-11-21T19:38:48;8.02;;;6.63;;
28774;SDS011;15926;51.348;6.596;2023-11-21T19:41:37;9.23;;;6.65;;
28774;SDS011;15926;51.348;6.596;2023-11-21T19:44:07;11.15;;;7.07;;
28774;SDS011;15926;51.348;6.596;2023-11-21T19:46:33;9.98;;;6.57;;
28774;SDS011;15926;51.348;6.596;2023-11-21T19:49:06;9.23;;;6.70;;
28774;SDS011;15926;51.348;6.596;2023-11-21T19:51:35;7.88;;;6.40;;
28774;SDS011;15926;51.348;6.596;2023-11-21T19:54:01;9.85;;;7.05;;
28774;SDS011;15926;51.348;6.596;2023-11-21T19:56:28;10.13;;;7.07;;
28774;SDS011;15926;51.348;6.596;2023-11-21T19:58:54;10.30;;;7.28;;
28774;SDS011;15926;51.348;6.596;2023-11-21T20:01:20;8.95;;;6.82;;